Time;durP1;ratioP1;P1;durP2;ratioP2;P2;SDS_P1;SDS_P2;PMS_P1;PMS_P2;Temp;Humidity;BMP_temperature;BMP_pressure;BME280_temperature;BME280_humidity;BME280_pressure;Samples;Min_cycle;Max_cycle;Signal;HPM_P1;HPM_P2
2022/12/19 00:01:17;;;;;;;25.08;15.43;;;-0.70;99.90;;;;;;5046024;28;20229;-79
2022/12/19 00:03:45;;;;;;;30.35;17.42;;;-0.70;99.90;;;;;;5050587;28;20518;-79
2022/12/19 00:06:12;;;;;;;25.15;15.30;;;-0.70;99.90;;;;;;5044294;28;20271;-78
2022/12/19 00:08:41;;;;;;;25.23;15.25;;;-0.70;99.90;;;;;;5048735;28;20233;-79
2022/12/19 00:11:10;;;;;;;25.30;15.77;;;-0.70;99.90;;;;;;5044506;28;20312;-76
2022/12/19 00:13:38;;;;;;;22.70;14.07;;;-0.70;99.90;;;;;;5054307;28;20220;-76
2022/12/19 00:16:08;;;;;;;25.77;14.57;;;-0.80;99.90;;;;;;5043566;28;20626;-76
2022/12/19 00:18:35;;;;;;;24.58;14.45;;;-0.70;99.90;;;;;;5048006;28;20664;-76
2022/12/19 00:21:04;;;;;;;26.00;14.55;;;-0.70;99.90;;;;;;5046247;28;20224;-78
2022/12/19 00:23:34;;;;;;;24.23;15.02;;;-0.70;99.90;;;;;;5048598;28;20712;-78
2022/12/19 00:26:09;;;;;;;24.95;13.32;;;-0.70;99.90;;;;;;5047021;28;20329;-78
2022/12/19 00:28:36;;;;;;;28.10;16.38;;;-0.80;99.90;;;;;;5041003;28;20683;-78
2022/12/19 00:31:03;;;;;;;21.30;14.10;;;-0.70;99.90;;;;;;5051236;28;20248;-78
2022/12/19 00:33:32;;;;;;;23.50;14.80;;;-0.60;99.90;;;;;;5062253;28;20747;-78
2022/12/19 00:36:00;;;;;;;23.70;15.07;;;-0.60;99.90;;;;;;5057765;28;20235;-78
2022/12/19 00:38:30;;;;;;;27.25;16.67;;;-0.60;99.90;;;;;;5052384;28;20362;-78
2022/12/19 00:41:13;;;;;;;28.80;15.13;;;-0.50;99.90;;;;;;5055729;28;20303;-77
2022/12/19 00:43:41;;;;;;;24.50;14.43;;;-0.60;99.90;;;;;;5060771;28;20664;-77
2022/12/19 00:46:11;;;;;;;26.15;15.05;;;-0.60;99.90;;;;;;5061262;28;20232;-76
2022/12/19 00:48:39;;;;;;;24.33;15.25;;;-0.70;99.90;;;;;;5049991;28;20220;-76
2022/12/19 00:51:08;;;;;;;24.23;15.95;;;-0.80;99.90;;;;;;5041672;28;20324;-77
2022/12/19 00:53:35;;;;;;;24.92;15.35;;;-0.80;99.90;;;;;;5047121;28;20296;-77
2022/12/19 00:56:03;;;;;;;20.83;14.07;;;-0.80;99.90;;;;;;5046829;28;20245;-78
2022/12/19 00:58:30;;;;;;;25.60;14.48;;;-0.80;99.90;;;;;;5045306;28;20732;-78
2022/12/19 01:00:57;;;;;;;28.35;16.83;;;-0.90;99.90;;;;;;5058125;28;20229;-78
2022/12/19 01:03:25;;;;;;;26.40;15.23;;;-0.90;99.90;;;;;;5067948;28;20211;-78
2022/12/19 01:05:53;;;;;;;24.65;15.45;;;-0.90;99.90;;;;;;5065566;28;20244;-80
2022/12/19 01:08:20;;;;;;;27.27;15.25;;;-0.90;99.90;;;;;;5066798;28;20285;-78
2022/12/19 01:10:48;;;;;;;25.75;15.55;;;-0.90;99.90;;;;;;5061281;28;20228;-78
2022/12/19 01:13:15;;;;;;;24.45;14.98;;;-0.90;99.90;;;;;;5072092;28;20297;-78
2022/12/19 01:15:42;;;;;;;25.95;14.43;;;-0.90;99.90;;;;;;5064862;28;20220;-78
2022/12/19 01:18:10;;;;;;;22.50;15.27;;;-0.90;99.90;;;;;;5065912;28;20293;-78
2022/12/19 01:20:38;;;;;;;23.80;15.38;;;-0.90;99.90;;;;;;5062176;28;20544;-78
2022/12/19 01:23:07;;;;;;;25.80;14.57;;;-0.80;99.90;;;;;;5070365;28;20248;-78
2022/12/19 01:25:34;;;;;;;22.83;13.75;;;-0.80;99.90;;;;;;5062675;28;20299;-78
2022/12/19 01:28:01;;;;;;;21.75;13.93;;;-0.80;99.90;;;;;;5059015;28;20302;-78
2022/12/19 01:30:29;;;;;;;26.75;14.50;;;-0.80;99.90;;;;;;5063239;28;20237;-78
2022/12/19 01:32:57;;;;;;;24.92;14.65;;;-0.90;99.90;;;;;;5066926;28;20228;-79
2022/12/19 01:35:24;;;;;;;20.08;14.00;;;-0.90;99.90;;;;;;5062470;28;20226;-78
2022/12/19 01:37:51;;;;;;;22.35;14.23;;;-0.80;99.90;;;;;;5049666;28;20263;-79
2022/12/19 01:40:20;;;;;;;22.65;14.70;;;-0.80;99.90;;;;;;5062864;28;20320;-79
2022/12/19 01:42:48;;;;;;;23.75;12.95;;;-0.90;99.90;;;;;;5069463;28;20606;-79
2022/12/19 01:45:28;;;;;;;20.13;12.55;;;-0.80;99.90;;;;;;5072156;28;20708;-79
2022/12/19 01:47:59;;;;;;;22.42;14.27;;;-0.80;99.90;;;;;;5061219;28;20216;-79
2022/12/19 01:50:29;;;;;;;21.75;14.13;;;-0.90;99.90;;;;;;5068371;28;20438;-79
2022/12/19 01:52:57;;;;;;;23.75;14.10;;;-0.80;99.90;;;;;;5079713;28;20314;-79
2022/12/19 01:55:26;;;;;;;26.85;15.40;;;-0.80;99.90;;;;;;5072044;28;20314;-78
2022/12/19 01:57:54;;;;;;;31.52;15.30;;;-0.80;99.90;;;;;;5071257;28;20230;-78
2022/12/19 02:00:21;;;;;;;19.75;14.95;;;-0.70;99.90;;;;;;5072720;28;21000;-79
2022/12/19 02:02:55;;;;;;;24.17;14.00;;;-0.70;99.90;;;;;;5071917;28;20220;-77
2022/12/19 02:05:22;;;;;;;21.27;13.73;;;-0.60;99.90;;;;;;5072750;28;20227;-77
2022/12/19 02:07:50;;;;;;;26.83;15.75;;;-0.60;99.90;;;;;;5072507;28;20224;-77
2022/12/19 02:10:17;;;;;;;22.38;15.25;;;-0.60;99.90;;;;;;5072725;28;20227;-77
2022/12/19 02:12:46;;;;;;;23.35;14.95;;;-0.70;99.90;;;;;;5072628;28;20228;-76
2022/12/19 02:15:15;;;;;;;27.88;15.90;;;-0.60;99.90;;;;;;5072215;28;20251;-76
2022/12/19 02:18:03;;;;;;;21.60;14.20;;;-0.60;99.90;;;;;;5072086;28;20223;-77
2022/12/19 02:21:00;;;;;;;20.85;14.52;;;-0.50;99.90;;;;;;5072288;28;20632;-76
2022/12/19 02:23:50;;;;;;;23.02;13.70;;;-0.40;99.90;;;;;;5052350;28;20303;-76
2022/12/19 02:26:36;;;;;;;29.23;16.17;;;-0.40;99.90;;;;;;5052440;28;20247;-77
2022/12/19 02:29:22;;;;;;;24.45;15.50;;;-0.40;99.90;;;;;;5051993;28;20255;-77
2022/12/19 02:31:55;;;;;;;27.67;14.90;;;-0.30;99.90;;;;;;5052144;28;20278;-78
2022/12/19 02:34:29;;;;;;;22.10;14.48;;;-0.40;99.90;;;;;;5051180;28;20648;-78
2022/12/19 02:37:03;;;;;;;20.25;14.05;;;-0.30;99.90;;;;;;5052656;28;20311;-77
2022/12/19 02:39:38;;;;;;;31.35;17.80;;;-0.40;99.90;;;;;;5051831;28;20228;-76
2022/12/19 02:42:08;;;;;;;21.15;14.57;;;-0.40;99.90;;;;;;5052525;28;20773;-77
2022/12/19 02:44:40;;;;;;;25.33;14.77;;;-0.40;99.90;;;;;;5051996;28;20367;-76
2022/12/19 02:47:10;;;;;;;22.85;13.63;;;-0.40;99.90;;;;;;5052127;28;20304;-76
2022/12/19 02:49:38;;;;;;;23.65;15.00;;;-0.30;99.90;;;;;;5052014;28;20308;-78
2022/12/19 02:52:12;;;;;;;26.77;15.88;;;-0.30;99.90;;;;;;5049536;28;20282;-77
2022/12/19 02:54:40;;;;;;;27.70;15.98;;;-0.30;99.90;;;;;;5051347;28;20295;-77
2022/12/19 02:57:14;;;;;;;26.30;16.30;;;-0.30;99.90;;;;;;5051004;28;20617;-76
2022/12/19 02:59:55;;;;;;;22.15;15.55;;;-0.30;99.90;;;;;;5051600;28;20223;-76
2022/12/19 03:02:34;;;;;;;23.40;14.27;;;-0.30;99.90;;;;;;5057289;28;20244;-77
2022/12/19 03:05:11;;;;;;;30.15;16.10;;;-0.30;99.90;;;;;;5052097;28;20224;-77
2022/12/19 03:07:48;;;;;;;26.85;15.18;;;-0.30;99.90;;;;;;5051506;28;20326;-77
2022/12/19 03:10:22;;;;;;;21.58;14.88;;;-0.30;99.90;;;;;;5051690;28;20235;-77
2022/12/19 03:12:53;;;;;;;23.13;14.93;;;-0.40;99.90;;;;;;5051803;28;20217;-77
2022/12/19 03:15:22;;;;;;;24.08;15.55;;;-0.30;99.90;;;;;;5051729;28;20308;-77
2022/12/19 03:17:51;;;;;;;24.98;16.33;;;-0.40;99.90;;;;;;5051469;28;20312;-77
2022/12/19 03:20:24;;;;;;;22.73;14.90;;;-0.40;99.90;;;;;;5051865;28;20253;-76
2022/12/19 03:22:51;;;;;;;29.45;15.05;;;-0.40;99.90;;;;;;5063269;28;20349;-76
2022/12/19 03:25:20;;;;;;;23.08;15.20;;;-0.40;99.90;;;;;;5071868;28;20235;-77
2022/12/19 03:27:50;;;;;;;23.98;14.65;;;-0.40;99.90;;;;;;5071589;28;20216;-77
2022/12/19 03:30:17;;;;;;;21.50;15.20;;;-0.50;99.90;;;;;;5071629;28;20311;-77
2022/12/19 03:32:47;;;;;;;22.50;15.13;;;-0.50;99.90;;;;;;5071371;28;20316;-76
2022/12/19 03:35:20;;;;;;;27.00;16.90;;;-0.40;99.90;;;;;;5067329;28;20231;-76
2022/12/19 03:37:49;;;;;;;25.42;14.90;;;-0.40;99.90;;;;;;5079229;28;20311;-76
2022/12/19 03:40:19;;;;;;;24.45;15.30;;;-0.40;99.90;;;;;;5071585;28;20591;-76
2022/12/19 03:45:40;;;;;;;25.60;16.10;;;-0.40;99.90;;;;;;5074784;28;20313;-77
2022/12/19 03:48:11;;;;;;;26.55;14.77;;;-0.40;99.90;;;;;;5075255;28;20223;-77
2022/12/19 03:50:46;;;;;;;28.67;16.50;;;-0.40;99.90;;;;;;5074255;28;20266;-76
2022/12/19 03:53:26;;;;;;;31.88;18.23;;;-0.40;99.90;;;;;;5074952;28;20301;-78
2022/12/19 03:56:00;;;;;;;25.23;15.98;;;-0.40;99.90;;;;;;5074623;28;20304;-78
2022/12/19 03:58:33;;;;;;;25.30;17.33;;;-0.30;99.90;;;;;;5075286;28;20739;-78
2022/12/19 04:01:01;;;;;;;24.50;16.23;;;-0.20;99.90;;;;;;5066100;28;20244;-77
2022/12/19 04:03:33;;;;;;;24.85;16.88;;;-0.30;99.90;;;;;;5075418;28;20215;-77
2022/12/19 04:06:04;;;;;;;25.42;14.88;;;-0.40;99.90;;;;;;5074893;28;20263;-77
2022/12/19 04:08:34;;;;;;;26.20;18.10;;;-0.40;99.90;;;;;;5074868;28;20569;-77
2022/12/19 04:11:10;;;;;;;28.45;17.85;;;-0.40;99.90;;;;;;5074872;28;20243;-77
2022/12/19 04:13:44;;;;;;;26.38;16.80;;;-0.30;99.90;;;;;;5074739;28;20299;-77
2022/12/19 04:16:18;;;;;;;23.33;15.48;;;-0.20;99.90;;;;;;5066099;28;20302;-77
2022/12/19 04:18:53;;;;;;;23.02;16.42;;;-0.20;99.90;;;;;;5074705;28;20270;-77
2022/12/19 04:21:26;;;;;;;29.83;17.25;;;-0.20;99.90;;;;;;5066306;28;20263;-79
2022/12/19 04:23:58;;;;;;;28.52;17.17;;;-0.20;99.90;;;;;;5074366;28;20231;-79
2022/12/19 04:26:25;;;;;;;29.10;17.60;;;-0.20;99.90;;;;;;5066291;28;20319;-79
2022/12/19 04:28:56;;;;;;;22.42;16.13;;;-0.10;99.90;;;;;;5074782;28;20224;-79
2022/12/19 04:31:23;;;;;;;28.23;16.42;;;-0.10;99.90;;;;;;5073955;28;20220;-79
2022/12/19 04:33:50;;;;;;;29.70;17.60;;;-0.10;99.90;;;;;;5074567;28;20235;-79
2022/12/19 04:36:18;;;;;;;31.27;16.67;;;-0.10;99.90;;;;;;5065568;28;20277;-79
2022/12/19 04:38:46;;;;;;;31.85;17.92;;;-0.10;99.90;;;;;;5074321;28;20224;-79
2022/12/19 04:41:13;;;;;;;29.27;17.95;;;-0.10;99.90;;;;;;5073714;28;20324;-79
2022/12/19 04:43:41;;;;;;;25.27;16.77;;;-0.10;99.90;;;;;;5074157;28;20307;-79
2022/12/19 04:46:08;;;;;;;27.42;16.80;;;0.00;99.90;;;;;;5073459;28;20223;-79
2022/12/19 04:48:35;;;;;;;28.23;16.95;;;0.10;99.90;;;;;;5074329;28;20216;-79
2022/12/19 04:51:06;;;;;;;26.02;18.25;;;0.10;99.90;;;;;;5074026;28;20310;-79
2022/12/19 04:53:40;;;;;;;24.75;15.63;;;0.20;99.90;;;;;;5072419;28;20212;-79
2022/12/19 04:56:13;;;;;;;29.90;20.85;;;0.20;99.90;;;;;;5073876;28;20220;-79
2022/12/19 04:58:40;;;;;;;25.75;17.38;;;0.20;99.90;;;;;;5073635;28;20281;-78
2022/12/19 05:01:08;;;;;;;26.58;17.13;;;0.20;99.90;;;;;;5073732;28;20286;-78
2022/12/19 05:03:36;;;;;;;30.70;16.52;;;0.20;99.90;;;;;;5073397;28;20283;-77
2022/12/19 05:06:07;;;;;;;27.70;17.77;;;0.20;99.90;;;;;;5073725;28;20247;-77
2022/12/19 05:08:34;;;;;;;27.08;16.50;;;0.10;99.90;;;;;;5073445;28;20247;-76
2022/12/19 05:11:01;;;;;;;27.92;16.63;;;0.10;99.90;;;;;;5073845;28;20652;-77
2022/12/19 05:13:30;;;;;;;28.50;17.95;;;0.10;99.90;;;;;;5073098;28;20231;-76
2022/12/19 05:15:57;;;;;;;24.42;15.43;;;0.00;99.90;;;;;;5073960;28;20228;-76
2022/12/19 05:18:25;;;;;;;35.10;19.23;;;-0.10;99.90;;;;;;5072411;28;20308;-76
2022/12/19 05:20:52;;;;;;;28.80;17.77;;;-0.10;99.90;;;;;;5073465;28;20227;-77
2022/12/19 05:23:22;;;;;;;26.42;16.98;;;0.00;99.90;;;;;;5073052;28;20680;-76
2022/12/19 05:25:50;;;;;;;31.02;18.40;;;0.00;99.90;;;;;;5073561;28;20251;-77
2022/12/19 05:28:19;;;;;;;24.05;16.05;;;0.00;99.90;;;;;;5073501;28;20698;-76
2022/12/19 05:30:48;;;;;;;30.33;17.13;;;0.00;99.90;;;;;;5073002;28;20228;-77
2022/12/19 05:33:30;;;;;;;32.10;18.58;;;-0.10;99.90;;;;;;5072836;28;20546;-77
2022/12/19 05:35:57;;;;;;;29.85;17.48;;;-0.10;99.90;;;;;;5061178;28;20664;-76
2022/12/19 05:38:24;;;;;;;26.25;16.98;;;0.00;99.90;;;;;;5072234;28;20307;-78
2022/12/19 05:40:51;;;;;;;26.13;17.33;;;0.00;99.90;;;;;;5073060;28;20314;-79
2022/12/19 05:43:18;;;;;;;28.75;17.25;;;0.10;99.90;;;;;;5055818;28;20653;-79
2022/12/19 05:45:45;;;;;;;27.70;16.58;;;0.00;99.90;;;;;;5087269;28;20242;-77
2022/12/19 05:48:17;;;;;;;27.70;20.13;;;0.00;99.90;;;;;;5072617;28;20246;-76
2022/12/19 05:50:48;;;;;;;28.50;17.13;;;0.00;99.90;;;;;;5072935;28;20250;-76
2022/12/19 05:53:15;;;;;;;38.38;18.00;;;0.10;99.90;;;;;;5072538;28;20224;-78
2022/12/19 05:55:42;;;;;;;23.35;16.30;;;0.10;99.90;;;;;;5073217;28;20220;-77
2022/12/19 05:58:09;;;;;;;30.05;17.60;;;0.10;99.90;;;;;;5072837;28;20262;-78
2022/12/19 06:00:37;;;;;;;23.40;14.98;;;0.20;99.90;;;;;;5072469;28;20252;-78
2022/12/19 06:03:04;;;;;;;30.02;16.70;;;0.20;99.90;;;;;;5072472;28;20220;-76
2022/12/19 06:05:32;;;;;;;24.50;16.40;;;0.20;99.90;;;;;;5071747;28;20223;-78
2022/12/19 06:08:02;;;;;;;26.67;16.92;;;0.20;99.90;;;;;;5072838;28;20575;-78
2022/12/19 06:10:29;;;;;;;25.73;16.75;;;0.30;99.90;;;;;;5071974;28;20263;-79
2022/12/19 06:12:56;;;;;;;29.50;18.05;;;0.30;99.90;;;;;;5072755;28;20227;-78
2022/12/19 06:15:24;;;;;;;29.70;16.45;;;0.40;99.90;;;;;;5071829;28;20228;-77
2022/12/19 06:17:53;;;;;;;29.90;17.25;;;0.50;99.90;;;;;;5072520;28;20208;-78
2022/12/19 06:20:20;;;;;;;22.55;15.35;;;0.50;99.90;;;;;;5071007;28;20713;-78
2022/12/19 06:22:51;;;;;;;23.45;16.33;;;0.50;99.90;;;;;;5081715;28;20306;-77
2022/12/19 06:25:18;;;;;;;27.95;18.00;;;0.50;99.90;;;;;;5076722;28;20228;-78
2022/12/19 06:27:45;;;;;;;25.90;16.63;;;0.60;99.90;;;;;;5072075;28;20250;-79
2022/12/19 06:30:13;;;;;;;25.85;17.67;;;0.60;99.90;;;;;;5072358;28;20228;-79
2022/12/19 06:32:40;;;;;;;25.65;15.95;;;0.70;99.90;;;;;;5071731;28;20227;-78
2022/12/19 06:35:08;;;;;;;26.02;16.20;;;0.60;99.90;;;;;;5072346;28;20323;-79
2022/12/19 06:37:35;;;;;;;24.17;16.80;;;0.60;99.90;;;;;;5071900;28;20314;-79
2022/12/19 06:40:04;;;;;;;28.23;16.25;;;0.60;99.90;;;;;;5072109;28;20235;-78
2022/12/19 06:42:30;;;;;;;28.02;17.42;;;0.70;99.90;;;;;;5071727;28;20289;-79
2022/12/19 06:44:57;;;;;;;26.40;15.90;;;0.60;99.90;;;;;;5072702;28;20675;-80
2022/12/19 06:47:25;;;;;;;27.63;15.52;;;0.60;99.90;;;;;;5069202;28;20799;-79
2022/12/19 06:49:52;;;;;;;27.15;15.15;;;0.60;99.90;;;;;;5071712;28;20314;-78
2022/12/19 06:52:21;;;;;;;25.45;16.17;;;0.60;99.90;;;;;;5072446;28;20224;-79
2022/12/19 06:54:48;;;;;;;26.92;17.13;;;0.60;99.90;;;;;;5070942;28;20224;-80
2022/12/19 06:57:24;;;;;;;27.08;16.70;;;0.60;99.90;;;;;;5072375;28;20307;-80
2022/12/19 06:59:54;;;;;;;25.95;17.20;;;0.70;99.90;;;;;;5055756;28;20239;-80
2022/12/19 07:02:28;;;;;;;33.85;16.17;;;0.70;99.90;;;;;;5081151;28;20231;-78
2022/12/19 07:05:01;;;;;;;29.05;17.00;;;0.70;99.90;;;;;;5079972;28;20525;-78
2022/12/19 07:07:29;;;;;;;24.80;15.88;;;0.80;99.90;;;;;;5071817;28;20243;-78
2022/12/19 07:09:56;;;;;;;27.45;16.05;;;0.80;99.90;;;;;;5071849;28;20640;-78
2022/12/19 07:12:25;;;;;;;26.80;17.73;;;0.90;99.90;;;;;;5072053;28;20240;-80
2022/12/19 07:14:52;;;;;;;25.27;15.73;;;0.90;99.90;;;;;;5071513;28;20244;-80
2022/12/19 07:17:19;;;;;;;25.35;15.10;;;0.90;99.90;;;;;;5075444;28;20723;-80
2022/12/19 07:19:49;;;;;;;23.77;14.05;;;0.90;99.90;;;;;;5075705;28;20705;-76
2022/12/19 07:22:17;;;;;;;25.05;15.93;;;0.90;99.90;;;;;;5076114;28;20220;-80
2022/12/19 07:24:44;;;;;;;33.30;15.90;;;0.90;99.90;;;;;;5075640;28;20619;-80
2022/12/19 07:27:11;;;;;;;21.88;15.05;;;1.00;99.90;;;;;;5076015;28;20228;-78
2022/12/19 07:29:39;;;;;;;23.65;15.60;;;0.90;99.90;;;;;;5074901;28;20335;-80
2022/12/19 07:32:06;;;;;;;24.05;16.40;;;0.90;99.90;;;;;;5054829;28;20735;-79
2022/12/19 07:34:42;;;;;;;26.98;15.88;;;1.00;99.90;;;;;;5054933;28;20298;-79
2022/12/19 07:37:09;;;;;;;25.10;14.80;;;1.00;99.90;;;;;;5054310;28;20299;-78
2022/12/19 07:39:36;;;;;;;22.95;14.48;;;1.00;99.90;;;;;;5054782;28;20315;-78
2022/12/19 07:42:06;;;;;;;25.38;15.00;;;1.10;99.90;;;;;;5054103;28;20278;-78
2022/12/19 07:44:33;;;;;;;24.23;14.48;;;1.00;99.90;;;;;;5054481;28;20222;-78
2022/12/19 07:47:01;;;;;;;24.23;15.80;;;1.10;99.90;;;;;;5054227;28;20671;-79
2022/12/19 07:49:34;;;;;;;28.23;15.40;;;1.00;99.90;;;;;;5054560;28;20233;-78
2022/12/19 07:52:01;;;;;;;22.88;15.15;;;1.00;99.90;;;;;;5054409;28;20221;-79
2022/12/19 07:54:28;;;;;;;23.13;15.15;;;1.00;99.90;;;;;;5055012;28;20225;-78
2022/12/19 07:56:58;;;;;;;29.65;16.75;;;1.00;99.90;;;;;;5054193;28;20329;-77
2022/12/19 07:59:25;;;;;;;27.75;15.88;;;1.10;99.90;;;;;;5054677;28;20295;-77
2022/12/19 08:01:52;;;;;;;24.73;14.85;;;1.10;99.90;;;;;;5053018;28;20652;-76
2022/12/19 08:04:23;;;;;;;20.63;13.15;;;1.10;99.90;;;;;;5054629;28;20246;-76
2022/12/19 08:06:50;;;;;;;20.52;14.02;;;1.00;99.90;;;;;;5053835;28;20213;-78
2022/12/19 08:09:17;;;;;;;26.58;13.60;;;1.10;99.90;;;;;;5054038;28;20225;-78
2022/12/19 08:11:44;;;;;;;27.02;15.05;;;1.10;99.90;;;;;;5054162;28;20356;-78
2022/12/19 08:14:11;;;;;;;26.90;16.48;;;1.20;99.90;;;;;;5053639;28;20307;-77
2022/12/19 08:16:41;;;;;;;21.45;13.85;;;1.20;99.90;;;;;;5060087;28;20300;-77
2022/12/19 08:19:08;;;;;;;27.25;15.65;;;1.30;99.90;;;;;;5053906;28;20259;-78
2022/12/19 08:21:36;;;;;;;21.75;15.02;;;1.30;99.90;;;;;;5053629;28;20220;-78
2022/12/19 08:24:04;;;;;;;24.52;14.85;;;1.40;99.90;;;;;;5054208;28;20234;-78
2022/12/19 08:26:33;;;;;;;24.10;15.43;;;1.40;99.90;;;;;;5054724;28;20606;-76
2022/12/19 08:29:00;;;;;;;24.67;15.50;;;1.50;99.90;;;;;;5053342;28;20228;-76
2022/12/19 08:31:28;;;;;;;25.55;15.75;;;1.60;99.90;;;;;;5045719;28;20307;-76
2022/12/19 08:33:56;;;;;;;23.80;14.65;;;1.50;99.90;;;;;;5053877;28;20258;-76
2022/12/19 08:36:24;;;;;;;23.08;14.45;;;1.60;99.90;;;;;;5052913;28;20225;-77
2022/12/19 08:38:52;;;;;;;24.85;16.40;;;1.60;99.90;;;;;;5053476;28;20280;-77
2022/12/19 08:41:19;;;;;;;18.88;13.50;;;1.70;99.90;;;;;;5053220;28;20220;-78
2022/12/19 08:43:49;;;;;;;21.92;14.02;;;1.70;99.90;;;;;;5053106;28;20320;-78
2022/12/19 08:46:17;;;;;;;22.58;14.30;;;1.70;99.90;;;;;;5053420;28;20248;-78
2022/12/19 08:48:44;;;;;;;25.00;14.52;;;1.70;99.90;;;;;;5054187;28;20216;-76
2022/12/19 08:51:13;;;;;;;29.92;14.88;;;1.70;99.90;;;;;;5053474;28;20711;-78
2022/12/19 08:53:41;;;;;;;29.23;15.30;;;1.80;99.90;;;;;;5048976;28;20312;-76
2022/12/19 08:56:12;;;;;;;27.52;16.17;;;1.80;99.90;;;;;;5063681;28;20324;-76
2022/12/19 08:58:39;;;;;;;19.55;13.40;;;1.80;99.90;;;;;;5054066;28;20278;-80
2022/12/19 09:01:08;;;;;;;22.73;15.38;;;1.70;99.90;;;;;;5053473;28;20311;-78
2022/12/19 09:03:36;;;;;;;26.90;14.25;;;1.70;99.90;;;;;;5053820;28;20564;-78
2022/12/19 09:06:05;;;;;;;24.15;14.48;;;1.70;99.90;;;;;;5053839;28;20224;-75
2022/12/19 09:08:34;;;;;;;25.85;15.50;;;1.80;99.90;;;;;;5053571;28;20212;-77
2022/12/19 09:11:03;;;;;;;20.83;13.90;;;1.80;99.90;;;;;;5053444;28;20252;-75
2022/12/19 09:13:33;;;;;;;20.98;15.00;;;1.80;99.90;;;;;;5052695;28;20285;-78
2022/12/19 09:16:01;;;;;;;22.15;13.07;;;1.80;99.90;;;;;;5053793;28;20233;-77
2022/12/19 09:18:30;;;;;;;19.08;14.48;;;1.90;99.90;;;;;;5053490;28;20232;-78
2022/12/19 09:20:58;;;;;;;24.35;15.73;;;2.00;99.90;;;;;;5053371;28;20252;-76
2022/12/19 09:23:27;;;;;;;21.13;14.25;;;2.00;99.90;;;;;;5052721;28;20291;-76
2022/12/19 09:26:01;;;;;;;29.58;15.50;;;2.00;99.90;;;;;;5053608;28;20224;-76
2022/12/19 09:28:29;;;;;;;22.25;13.60;;;2.00;99.90;;;;;;5053086;28;20235;-78
2022/12/19 09:30:59;;;;;;;20.70;14.65;;;2.00;99.90;;;;;;5053295;28;20225;-78
2022/12/19 09:33:27;;;;;;;22.77;16.13;;;2.10;99.90;;;;;;5052725;28;20228;-78
2022/12/19 09:35:55;;;;;;;23.02;14.68;;;2.10;99.90;;;;;;5052941;28;20312;-78
2022/12/19 09:38:24;;;;;;;25.98;15.73;;;2.10;99.90;;;;;;5052350;28;20236;-78
2022/12/19 09:41:02;;;;;;;22.80;14.55;;;2.10;99.90;;;;;;5052583;28;20646;-78
2022/12/19 09:43:43;;;;;;;21.45;15.98;;;2.20;99.90;;;;;;5052860;28;20261;-78
2022/12/19 09:46:17;;;;;;;22.60;14.80;;;2.30;99.90;;;;;;5052872;28;20224;-79
2022/12/19 09:48:47;;;;;;;27.20;16.95;;;2.40;99.90;;;;;;5052671;28;20564;-78
2022/12/19 09:51:34;;;;;;;21.55;15.52;;;2.40;99.90;;;;;;5053062;28;20233;-78
2022/12/19 09:54:07;;;;;;;25.67;15.70;;;2.40;99.90;;;;;;5052602;28;20532;-78
2022/12/19 09:56:38;;;;;;;23.02;14.50;;;2.40;99.90;;;;;;5052287;28;20557;-79
2022/12/19 09:59:12;;;;;;;23.25;15.98;;;2.50;99.90;;;;;;5052353;28;20286;-79
2022/12/19 10:01:52;;;;;;;23.23;14.50;;;2.60;99.90;;;;;;5052814;28;20220;-78
2022/12/19 10:04:19;;;;;;;28.15;16.40;;;2.60;99.90;;;;;;5052307;28;20263;-78
2022/12/19 10:06:47;;;;;;;21.23;15.55;;;2.70;99.90;;;;;;5053031;28;20298;-78
2022/12/19 10:09:22;;;;;;;24.92;14.80;;;2.70;99.90;;;;;;5052253;28;20229;-79
2022/12/19 10:12:05;;;;;;;20.48;14.10;;;2.80;99.90;;;;;;5052030;28;20234;-78
2022/12/19 10:14:43;;;;;;;30.35;17.38;;;2.80;99.90;;;;;;5052304;28;20307;-78
2022/12/19 10:17:23;;;;;;;22.10;14.68;;;2.80;99.90;;;;;;5052046;28;20224;-78
2022/12/19 10:20:08;;;;;;;23.95;15.35;;;2.80;99.90;;;;;;5052639;28;20228;-79
2022/12/19 10:22:45;;;;;;;20.65;14.27;;;2.90;99.90;;;;;;5052342;28;20224;-78
2022/12/19 10:25:33;;;;;;;24.70;15.63;;;3.00;99.90;;;;;;5052221;28;20247;-78
2022/12/19 10:28:15;;;;;;;20.00;13.30;;;3.10;99.90;;;;;;5052794;28;20236;-79
2022/12/19 10:30:49;;;;;;;25.58;14.65;;;3.20;99.90;;;;;;5052228;28;20238;-78
2022/12/19 10:33:26;;;;;;;26.52;15.30;;;3.20;99.90;;;;;;5052116;28;20248;-77
2022/12/19 10:35:56;;;;;;;22.85;13.50;;;3.20;99.90;;;;;;5052570;28;20223;-77
2022/12/19 10:38:29;;;;;;;25.92;15.63;;;3.30;99.90;;;;;;5043213;28;20293;-77
2022/12/19 10:41:19;;;;;;;24.83;15.35;;;3.20;99.90;;;;;;5052258;28;20631;-77
2022/12/19 10:43:56;;;;;;;30.65;15.10;;;3.30;99.90;;;;;;5052135;28;20217;-77
2022/12/19 10:46:32;;;;;;;24.73;13.77;;;3.40;99.90;;;;;;5052282;28;20315;-77
2022/12/19 10:49:10;;;;;;;24.60;13.98;;;3.40;99.90;;;;;;5051095;28;20243;-77
2022/12/19 10:51:37;;;;;;;23.00;14.80;;;3.50;99.90;;;;;;5053821;28;20307;-77
2022/12/19 10:54:04;;;;;;;23.35;15.80;;;3.50;99.90;;;;;;5055744;28;20299;-77
2022/12/19 10:56:32;;;;;;;26.73;14.57;;;3.60;99.90;;;;;;5055922;28;20274;-77
2022/12/19 10:59:00;;;;;;;20.33;13.80;;;3.70;99.90;;;;;;5046380;28;20229;-77
2022/12/19 11:01:29;;;;;;;25.33;14.13;;;3.70;99.90;;;;;;5056280;28;20220;-77
2022/12/19 11:06:51;;;;;;;24.60;14.10;;;3.80;99.90;;;;;;5131065;27;21095;-77
2022/12/19 11:09:26;;;;;;;24.80;14.13;;;3.90;99.90;;;;;;5137291;27;20261;-77
2022/12/19 11:12:11;;;;;;;22.17;14.35;;;3.90;99.70;;;;;;5159659;27;20219;-77
2022/12/19 11:14:44;;;;;;;23.48;15.23;;;3.90;99.80;;;;;;5161143;27;20271;-75
2022/12/19 11:17:35;;;;;;;23.27;13.80;;;3.90;99.90;;;;;;5163774;27;20255;-76
2022/12/19 11:20:11;;;;;;;23.35;14.05;;;3.90;99.90;;;;;;5154775;27;20221;-76
2022/12/19 11:22:42;;;;;;;24.70;16.17;;;3.90;99.90;;;;;;5150999;27;20225;-77
2022/12/19 11:25:16;;;;;;;21.98;14.90;;;3.90;99.90;;;;;;5151116;27;20663;-78
2022/12/19 11:27:47;;;;;;;23.55;15.85;;;3.90;99.90;;;;;;5152991;27;20225;-78
2022/12/19 11:30:21;;;;;;;24.58;14.20;;;3.90;99.90;;;;;;5151386;27;20245;-78
2022/12/19 11:33:06;;;;;;;22.33;13.25;;;3.90;99.90;;;;;;5151357;27;20312;-77
2022/12/19 11:35:33;;;;;;;25.08;15.48;;;4.00;99.90;;;;;;5151415;27;20227;-77
2022/12/19 11:38:04;;;;;;;16.92;13.50;;;4.10;99.90;;;;;;5151330;27;20424;-78
2022/12/19 11:40:36;;;;;;;29.48;15.10;;;4.10;99.90;;;;;;5157122;27;20274;-78
2022/12/19 11:43:10;;;;;;;19.17;13.75;;;4.10;99.90;;;;;;5151874;27;20297;-77
2022/12/19 11:45:47;;;;;;;23.67;15.57;;;4.20;99.90;;;;;;5129962;27;20241;-77
2022/12/19 11:48:21;;;;;;;23.83;14.10;;;4.20;99.90;;;;;;5130501;27;20210;-76
2022/12/19 11:50:58;;;;;;;26.50;15.57;;;4.20;99.90;;;;;;5129020;27;20259;-76
2022/12/19 11:53:30;;;;;;;21.55;13.80;;;4.20;99.90;;;;;;5129302;27;20249;-76
2022/12/19 11:56:08;;;;;;;25.08;15.95;;;4.20;99.90;;;;;;5143085;27;20245;-78
2022/12/19 11:58:35;;;;;;;25.08;15.55;;;4.20;99.90;;;;;;5155712;27;20217;-77
2022/12/19 12:01:19;;;;;;;19.05;13.20;;;4.20;99.90;;;;;;5142171;27;20251;-78
2022/12/19 12:04:13;;;;;;;22.00;13.27;;;4.20;99.90;;;;;;5141333;27;20228;-77
2022/12/19 12:06:50;;;;;;;25.45;14.27;;;4.20;99.90;;;;;;5139108;27;20231;-78
2022/12/19 12:09:36;;;;;;;24.92;15.00;;;4.20;99.90;;;;;;5164062;27;20228;-78
2022/12/19 12:12:12;;;;;;;19.85;13.52;;;4.20;99.90;;;;;;5133528;27;20228;-78
2022/12/19 12:14:55;;;;;;;22.30;14.38;;;4.20;99.90;;;;;;5150568;27;20221;-78
2022/12/19 12:17:36;;;;;;;22.98;14.80;;;4.30;99.90;;;;;;5141393;27;20270;-78
2022/12/19 12:20:39;;;;;;;20.70;13.02;;;4.30;99.90;;;;;;5136215;27;20297;-78
2022/12/19 12:23:24;;;;;;;22.27;14.90;;;4.30;99.90;;;;;;5135380;27;20308;-77
2022/12/19 12:26:03;;;;;;;22.88;14.73;;;4.40;99.90;;;;;;5135560;27;20567;-77
2022/12/19 12:28:59;;;;;;;24.77;14.00;;;4.40;99.90;;;;;;5135194;27;20302;-77
2022/12/19 12:31:47;;;;;;;21.23;13.18;;;4.40;99.90;;;;;;5135662;27;20247;-76
2022/12/19 12:34:45;;;;;;;25.25;13.98;;;4.50;99.90;;;;;;5134336;27;20227;-77
2022/12/19 12:37:31;;;;;;;22.65;13.85;;;4.50;99.90;;;;;;5137807;27;20234;-77
2022/12/19 12:40:16;;;;;;;26.63;14.85;;;4.40;99.90;;;;;;5135456;27;20221;-76
2022/12/19 12:42:53;;;;;;;22.83;14.13;;;4.40;99.90;;;;;;5128383;27;20658;-77
2022/12/19 12:45:32;;;;;;;21.83;15.23;;;4.40;99.90;;;;;;5123783;27;20257;-77
2022/12/19 12:48:01;;;;;;;20.23;13.88;;;4.30;99.90;;;;;;5123007;27;20619;-76
2022/12/19 12:50:28;;;;;;;20.80;13.85;;;4.30;99.90;;;;;;5113825;27;20670;-77
2022/12/19 12:52:59;;;;;;;23.08;14.98;;;4.30;99.90;;;;;;5132194;27;20651;-76
2022/12/19 12:55:28;;;;;;;21.50;15.27;;;4.30;99.90;;;;;;5141946;27;20626;-77
2022/12/19 12:57:57;;;;;;;19.17;14.05;;;4.30;99.90;;;;;;5126765;27;20230;-76
2022/12/19 13:00:26;;;;;;;17.75;14.20;;;4.40;99.90;;;;;;5126116;27;20915;-76